sensor_id;sensor_type;location;lat;lon;timestamp;P1;durP1;ratioP1;P2;durP2;ratioP2
68216;SDS011;55037;52.354;4.992;2022-09-09T00:00:24;4.80;;;2.47;;
68216;SDS011;55037;52.354;4.992;2022-09-09T00:03:04;4.78;;;2.20;;
68216;SDS011;55037;52.354;4.992;2022-09-09T00:05:44;4.25;;;2.40;;
68216;SDS011;55037;52.354;4.992;2022-09-09T00:08:20;4.95;;;2.70;;
68216;SDS011;55037;52.354;4.992;2022-09-09T00:10:53;4.38;;;2.58;;
68216;SDS011;55037;52.354;4.992;2022-09-09T00:13:43;4.65;;;2.78;;
68216;SDS011;55037;52.354;4.992;2022-09-09T00:16:21;6.07;;;3.35;;
68216;SDS011;55037;52.354;4.992;2022-09-09T00:18:57;5.05;;;2.90;;
68216;SDS011;55037;52.354;4.992;2022-09-09T00:22:02;6.03;;;3.13;;
68216;SDS011;55037;52.354;4.992;2022-09-09T00:24:42;6.70;;;3.25;;
68216;SDS011;55037;52.354;4.992;2022-09-09T00:27:34;5.90;;;3.33;;
68216;SDS011;55037;52.354;4.992;2022-09-09T00:30:17;7.32;;;3.40;;
68216;SDS011;55037;52.354;4.992;2022-09-09T00:32:46;8.63;;;3.83;;
68216;SDS011;55037;52.354;4.992;2022-09-09T00:35:21;7.38;;;3.65;;
68216;SDS011;55037;52.354;4.992;2022-09-09T00:37:57;7.78;;;3.83;;
68216;SDS011;55037;52.354;4.992;2022-09-09T00:40:35;7.10;;;3.53;;
68216;SDS011;55037;52.354;4.992;2022-09-09T00:43:21;6.50;;;3.90;;
68216;SDS011;55037;52.354;4.992;2022-09-09T00:45:58;8.05;;;4.43;;
68216;SDS011;55037;52.354;4.992;2022-09-09T00:51:30;6.87;;;4.67;;
68216;SDS011;55037;52.354;4.992;2022-09-09T00:59:51;8.45;;;5.20;;
68216;SDS011;55037;52.354;4.992;2022-09-09T01:02:39;12.07;;;5.47;;
68216;SDS011;55037;52.354;4.992;2022-09-09T01:05:18;10.93;;;5.50;;
68216;SDS011;55037;52.354;4.992;2022-09-09T01:14:11;11.20;;;6.00;;
68216;SDS011;55037;52.354;4.992;2022-09-09T01:16:55;10.20;;;6.43;;
68216;SDS011;55037;52.354;4.992;2022-09-09T01:19:35;13.02;;;6.85;;
68216;SDS011;55037;52.354;4.992;2022-09-09T01:27:59;10.60;;;6.23;;
68216;SDS011;55037;52.354;4.992;2022-09-09T01:30:31;11.85;;;6.47;;
68216;SDS011;55037;52.354;4.992;2022-09-09T01:33:00;12.23;;;7.18;;
68216;SDS011;55037;52.354;4.992;2022-09-09T01:35:32;11.63;;;5.72;;
68216;SDS011;55037;52.354;4.992;2022-09-09T01:38:03;8.27;;;5.67;;
68216;SDS011;55037;52.354;4.992;2022-09-09T01:40:31;10.65;;;6.82;;
68216;SDS011;55037;52.354;4.992;2022-09-09T01:42:59;11.40;;;6.40;;
68216;SDS011;55037;52.354;4.992;2022-09-09T01:45:27;12.95;;;7.13;;
68216;SDS011;55037;52.354;4.992;2022-09-09T01:47:54;10.88;;;6.50;;
68216;SDS011;55037;52.354;4.992;2022-09-09T01:50:36;11.70;;;7.15;;
68216;SDS011;55037;52.354;4.992;2022-09-09T01:53:03;13.15;;;7.28;;
68216;SDS011;55037;52.354;4.992;2022-09-09T01:55:33;17.13;;;7.50;;
68216;SDS011;55037;52.354;4.992;2022-09-09T01:58:28;13.55;;;7.90;;
68216;SDS011;55037;52.354;4.992;2022-09-09T02:01:39;9.57;;;6.35;;
68216;SDS011;55037;52.354;4.992;2022-09-09T02:10:16;13.77;;;7.60;;
68216;SDS011;55037;52.354;4.992;2022-09-09T02:13:05;13.00;;;7.00;;
68216;SDS011;55037;52.354;4.992;2022-09-09T02:15:40;12.95;;;8.00;;
68216;SDS011;55037;52.354;4.992;2022-09-09T02:18:12;14.63;;;8.40;;
68216;SDS011;55037;52.354;4.992;2022-09-09T02:20:44;11.20;;;6.80;;
68216;SDS011;55037;52.354;4.992;2022-09-09T02:23:12;12.35;;;7.50;;
68216;SDS011;55037;52.354;4.992;2022-09-09T02:25:43;12.73;;;8.00;;
68216;SDS011;55037;52.354;4.992;2022-09-09T02:28:19;13.43;;;8.00;;
68216;SDS011;55037;52.354;4.992;2022-09-09T02:30:48;11.90;;;7.63;;
68216;SDS011;55037;52.354;4.992;2022-09-09T02:33:27;12.05;;;7.63;;
68216;SDS011;55037;52.354;4.992;2022-09-09T02:35:58;12.93;;;7.90;;
68216;SDS011;55037;52.354;4.992;2022-09-09T02:38:32;9.68;;;6.55;;
68216;SDS011;55037;52.354;4.992;2022-09-09T02:41:08;11.98;;;8.05;;
68216;SDS011;55037;52.354;4.992;2022-09-09T02:43:35;10.40;;;6.95;;
68216;SDS011;55037;52.354;4.992;2022-09-09T02:49:00;13.80;;;7.97;;
68216;SDS011;55037;52.354;4.992;2022-09-09T02:51:52;14.18;;;7.65;;
68216;SDS011;55037;52.354;4.992;2022-09-09T02:54:30;10.82;;;7.07;;
68216;SDS011;55037;52.354;4.992;2022-09-09T02:59:38;13.70;;;7.90;;
68216;SDS011;55037;52.354;4.992;2022-09-09T03:02:06;12.40;;;7.50;;
68216;SDS011;55037;52.354;4.992;2022-09-09T03:04:34;12.40;;;7.80;;
68216;SDS011;55037;52.354;4.992;2022-09-09T03:07:01;13.80;;;8.10;;
68216;SDS011;55037;52.354;4.992;2022-09-09T03:09:32;12.75;;;7.75;;
68216;SDS011;55037;52.354;4.992;2022-09-09T03:11:59;13.27;;;8.13;;
68216;SDS011;55037;52.354;4.992;2022-09-09T03:14:28;11.13;;;7.38;;
68216;SDS011;55037;52.354;4.992;2022-09-09T03:16:55;10.75;;;6.63;;
68216;SDS011;55037;52.354;4.992;2022-09-09T03:19:24;13.93;;;7.63;;
68216;SDS011;55037;52.354;4.992;2022-09-09T03:21:51;11.43;;;7.20;;
68216;SDS011;55037;52.354;4.992;2022-09-09T03:24:19;14.40;;;8.30;;
68216;SDS011;55037;52.354;4.992;2022-09-09T03:26:46;15.95;;;7.95;;
68216;SDS011;55037;52.354;4.992;2022-09-09T03:29:16;14.48;;;8.40;;
68216;SDS011;55037;52.354;4.992;2022-09-09T03:31:44;12.75;;;8.60;;
68216;SDS011;55037;52.354;4.992;2022-09-09T03:34:12;11.82;;;8.50;;
68216;SDS011;55037;52.354;4.992;2022-09-09T03:36:40;13.63;;;8.57;;
68216;SDS011;55037;52.354;4.992;2022-09-09T03:39:08;15.82;;;9.05;;
68216;SDS011;55037;52.354;4.992;2022-09-09T03:41:36;14.70;;;8.65;;
68216;SDS011;55037;52.354;4.992;2022-09-09T03:44:03;15.20;;;8.80;;
68216;SDS011;55037;52.354;4.992;2022-09-09T03:46:36;12.85;;;8.15;;
68216;SDS011;55037;52.354;4.992;2022-09-09T03:49:04;14.68;;;8.77;;
68216;SDS011;55037;52.354;4.992;2022-09-09T03:51:32;15.07;;;9.85;;
68216;SDS011;55037;52.354;4.992;2022-09-09T03:54:03;16.10;;;9.45;;
68216;SDS011;55037;52.354;4.992;2022-09-09T03:56:31;15.30;;;9.30;;
68216;SDS011;55037;52.354;4.992;2022-09-09T03:58:59;13.98;;;8.80;;
68216;SDS011;55037;52.354;4.992;2022-09-09T04:01:26;15.55;;;9.45;;
68216;SDS011;55037;52.354;4.992;2022-09-09T04:03:54;16.65;;;9.13;;
68216;SDS011;55037;52.354;4.992;2022-09-09T04:06:25;14.52;;;7.88;;
68216;SDS011;55037;52.354;4.992;2022-09-09T04:08:52;16.92;;;8.40;;
68216;SDS011;55037;52.354;4.992;2022-09-09T04:11:20;14.68;;;9.30;;
68216;SDS011;55037;52.354;4.992;2022-09-09T04:13:50;16.88;;;9.02;;
68216;SDS011;55037;52.354;4.992;2022-09-09T04:16:18;14.45;;;8.90;;
68216;SDS011;55037;52.354;4.992;2022-09-09T04:18:46;14.80;;;9.30;;
68216;SDS011;55037;52.354;4.992;2022-09-09T04:21:15;14.52;;;9.30;;
68216;SDS011;55037;52.354;4.992;2022-09-09T04:23:43;7.63;;;5.25;;
68216;SDS011;55037;52.354;4.992;2022-09-09T04:26:10;13.90;;;8.30;;
68216;SDS011;55037;52.354;4.992;2022-09-09T04:28:38;12.70;;;7.80;;
68216;SDS011;55037;52.354;4.992;2022-09-09T04:31:19;9.52;;;5.50;;
68216;SDS011;55037;52.354;4.992;2022-09-09T04:33:52;18.40;;;8.55;;
68216;SDS011;55037;52.354;4.992;2022-09-09T04:36:20;10.95;;;6.85;;
68216;SDS011;55037;52.354;4.992;2022-09-09T04:38:50;10.50;;;6.50;;
68216;SDS011;55037;52.354;4.992;2022-09-09T04:41:18;10.27;;;6.43;;
68216;SDS011;55037;52.354;4.992;2022-09-09T04:43:49;12.27;;;6.10;;
68216;SDS011;55037;52.354;4.992;2022-09-09T04:46:16;11.15;;;5.95;;
68216;SDS011;55037;52.354;4.992;2022-09-09T04:48:44;8.35;;;5.10;;
68216;SDS011;55037;52.354;4.992;2022-09-09T04:51:12;10.02;;;5.72;;
68216;SDS011;55037;52.354;4.992;2022-09-09T04:53:42;10.45;;;5.95;;
68216;SDS011;55037;52.354;4.992;2022-09-09T04:56:11;12.07;;;6.00;;
68216;SDS011;55037;52.354;4.992;2022-09-09T04:58:45;14.37;;;6.33;;
68216;SDS011;55037;52.354;4.992;2022-09-09T05:01:17;10.15;;;5.30;;
68216;SDS011;55037;52.354;4.992;2022-09-09T05:03:47;7.32;;;4.40;;
68216;SDS011;55037;52.354;4.992;2022-09-09T05:06:19;8.68;;;4.75;;
68216;SDS011;55037;52.354;4.992;2022-09-09T05:08:50;9.43;;;4.70;;
68216;SDS011;55037;52.354;4.992;2022-09-09T05:11:25;11.75;;;5.13;;
68216;SDS011;55037;52.354;4.992;2022-09-09T05:13:59;8.50;;;4.32;;
68216;SDS011;55037;52.354;4.992;2022-09-09T05:16:28;11.10;;;4.80;;
68216;SDS011;55037;52.354;4.992;2022-09-09T05:18:56;9.63;;;4.97;;
68216;SDS011;55037;52.354;4.992;2022-09-09T05:21:24;10.15;;;4.72;;
68216;SDS011;55037;52.354;4.992;2022-09-09T05:23:52;10.63;;;5.00;;
68216;SDS011;55037;52.354;4.992;2022-09-09T05:26:20;8.97;;;4.53;;
68216;SDS011;55037;52.354;4.992;2022-09-09T05:28:51;6.93;;;3.67;;
68216;SDS011;55037;52.354;4.992;2022-09-09T05:31:19;8.77;;;4.20;;
68216;SDS011;55037;52.354;4.992;2022-09-09T05:33:49;9.35;;;4.20;;
68216;SDS011;55037;52.354;4.992;2022-09-09T05:36:17;8.45;;;4.38;;
68216;SDS011;55037;52.354;4.992;2022-09-09T05:38:49;5.15;;;3.20;;
68216;SDS011;55037;52.354;4.992;2022-09-09T05:41:18;6.45;;;3.50;;
68216;SDS011;55037;52.354;4.992;2022-09-09T05:43:46;11.55;;;4.22;;
68216;SDS011;55037;52.354;4.992;2022-09-09T05:46:19;9.13;;;3.65;;
68216;SDS011;55037;52.354;4.992;2022-09-09T05:48:50;7.70;;;3.60;;
68216;SDS011;55037;52.354;4.992;2022-09-09T05:51:20;6.97;;;3.58;;
68216;SDS011;55037;52.354;4.992;2022-09-09T05:53:51;8.38;;;3.80;;
68216;SDS011;55037;52.354;4.992;2022-09-09T05:56:19;9.88;;;3.90;;
68216;SDS011;55037;52.354;4.992;2022-09-09T05:58:49;10.15;;;3.97;;
68216;SDS011;55037;52.354;4.992;2022-09-09T06:01:19;9.50;;;3.80;;
68216;SDS011;55037;52.354;4.992;2022-09-09T06:03:48;7.97;;;2.97;;
68216;SDS011;55037;52.354;4.992;2022-09-09T06:06:17;9.85;;;3.53;;
68216;SDS011;55037;52.354;4.992;2022-09-09T06:08:53;8.43;;;3.53;;
68216;SDS011;55037;52.354;4.992;2022-09-09T06:11:29;9.18;;;3.47;;
68216;SDS011;55037;52.354;4.992;2022-09-09T06:13:59;7.83;;;3.23;;
68216;SDS011;55037;52.354;4.992;2022-09-09T06:16:29;7.47;;;3.40;;
68216;SDS011;55037;52.354;4.992;2022-09-09T06:18:59;8.27;;;3.60;;
68216;SDS011;55037;52.354;4.992;2022-09-09T06:21:33;8.88;;;3.35;;
68216;SDS011;55037;52.354;4.992;2022-09-09T06:24:05;8.15;;;3.30;;
68216;SDS011;55037;52.354;4.992;2022-09-09T06:26:35;8.40;;;3.42;;
68216;SDS011;55037;52.354;4.992;2022-09-09T06:29:04;9.32;;;3.10;;
68216;SDS011;55037;52.354;4.992;2022-09-09T06:31:32;9.73;;;3.10;;
68216;SDS011;55037;52.354;4.992;2022-09-09T06:34:10;11.50;;;3.08;;
68216;SDS011;55037;52.354;4.992;2022-09-09T06:36:40;11.20;;;3.20;;
68216;SDS011;55037;52.354;4.992;2022-09-09T06:39:07;7.60;;;2.70;;
68216;SDS011;55037;52.354;4.992;2022-09-09T06:41:41;7.20;;;2.58;;
68216;SDS011;55037;52.354;4.992;2022-09-09T06:44:24;11.00;;;3.08;;
68216;SDS011;55037;52.354;4.992;2022-09-09T06:46:55;10.35;;;3.13;;
68216;SDS011;55037;52.354;4.992;2022-09-09T06:49:23;6.68;;;2.50;;
68216;SDS011;55037;52.354;4.992;2022-09-09T06:51:50;8.45;;;2.80;;
68216;SDS011;55037;52.354;4.992;2022-09-09T06:54:20;9.70;;;2.70;;
68216;SDS011;55037;52.354;4.992;2022-09-09T06:56:48;8.38;;;2.40;;
68216;SDS011;55037;52.354;4.992;2022-09-09T06:59:21;9.43;;;3.10;;
68216;SDS011;55037;52.354;4.992;2022-09-09T07:01:49;8.93;;;2.50;;
68216;SDS011;55037;52.354;4.992;2022-09-09T07:04:22;8.80;;;2.67;;
68216;SDS011;55037;52.354;4.992;2022-09-09T07:06:49;9.23;;;2.47;;
68216;SDS011;55037;52.354;4.992;2022-09-09T07:09:22;9.55;;;2.47;;
68216;SDS011;55037;52.354;4.992;2022-09-09T07:11:52;7.00;;;2.53;;
68216;SDS011;55037;52.354;4.992;2022-09-09T07:14:21;6.67;;;2.43;;
68216;SDS011;55037;52.354;4.992;2022-09-09T07:16:55;7.88;;;2.25;;
68216;SDS011;55037;52.354;4.992;2022-09-09T07:19:26;7.38;;;2.65;;
68216;SDS011;55037;52.354;4.992;2022-09-09T07:21:55;10.52;;;2.83;;
68216;SDS011;55037;52.354;4.992;2022-09-09T07:24:23;9.37;;;3.00;;
68216;SDS011;55037;52.354;4.992;2022-09-09T07:26:51;8.18;;;2.88;;
68216;SDS011;55037;52.354;4.992;2022-09-09T07:29:19;9.17;;;3.27;;
68216;SDS011;55037;52.354;4.992;2022-09-09T07:31:48;8.47;;;3.47;;
68216;SDS011;55037;52.354;4.992;2022-09-09T07:34:24;10.65;;;3.90;;
68216;SDS011;55037;52.354;4.992;2022-09-09T07:36:51;12.18;;;4.10;;
68216;SDS011;55037;52.354;4.992;2022-09-09T07:39:19;10.23;;;3.60;;
68216;SDS011;55037;52.354;4.992;2022-09-09T07:41:51;9.63;;;3.30;;
68216;SDS011;55037;52.354;4.992;2022-09-09T07:44:23;8.85;;;3.50;;
68216;SDS011;55037;52.354;4.992;2022-09-09T07:46:58;8.20;;;3.53;;
68216;SDS011;55037;52.354;4.992;2022-09-09T07:49:32;9.63;;;3.80;;
68216;SDS011;55037;52.354;4.992;2022-09-09T07:52:02;9.10;;;3.67;;
68216;SDS011;55037;52.354;4.992;2022-09-09T07:54:30;8.85;;;4.18;;
68216;SDS011;55037;52.354;4.992;2022-09-09T07:57:01;8.60;;;3.72;;
68216;SDS011;55037;52.354;4.992;2022-09-09T07:59:32;12.38;;;4.10;;
68216;SDS011;55037;52.354;4.992;2022-09-09T08:02:01;10.93;;;3.70;;
68216;SDS011;55037;52.354;4.992;2022-09-09T08:04:31;7.57;;;3.73;;
68216;SDS011;55037;52.354;4.992;2022-09-09T08:06:59;9.15;;;3.60;;
68216;SDS011;55037;52.354;4.992;2022-09-09T08:09:30;9.13;;;3.40;;
68216;SDS011;55037;52.354;4.992;2022-09-09T08:12:07;8.15;;;3.65;;
68216;SDS011;55037;52.354;4.992;2022-09-09T08:14:35;10.40;;;4.40;;
68216;SDS011;55037;52.354;4.992;2022-09-09T08:17:02;10.15;;;3.83;;
68216;SDS011;55037;52.354;4.992;2022-09-09T08:19:31;9.10;;;3.97;;
68216;SDS011;55037;52.354;4.992;2022-09-09T08:22:06;8.60;;;3.70;;
68216;SDS011;55037;52.354;4.992;2022-09-09T08:24:35;8.02;;;3.78;;
68216;SDS011;55037;52.354;4.992;2022-09-09T08:27:03;9.55;;;3.25;;
68216;SDS011;55037;52.354;4.992;2022-09-09T08:29:30;9.10;;;3.97;;
68216;SDS011;55037;52.354;4.992;2022-09-09T08:31:58;7.78;;;3.13;;
68216;SDS011;55037;52.354;4.992;2022-09-09T08:34:27;7.77;;;3.27;;
68216;SDS011;55037;52.354;4.992;2022-09-09T08:36:56;8.80;;;3.43;;
68216;SDS011;55037;52.354;4.992;2022-09-09T08:39:30;9.15;;;3.50;;
68216;SDS011;55037;52.354;4.992;2022-09-09T08:52:54;7.13;;;3.25;;
68216;SDS011;55037;52.354;4.992;2022-09-09T08:58:15;8.15;;;3.45;;
68216;SDS011;55037;52.354;4.992;2022-09-09T09:01:10;9.77;;;3.67;;
68216;SDS011;55037;52.354;4.992;2022-09-09T09:04:13;8.38;;;3.20;;
68216;SDS011;55037;52.354;4.992;2022-09-09T09:12:57;9.32;;;3.67;;
68216;SDS011;55037;52.354;4.992;2022-09-09T09:15:28;8.50;;;3.67;;
68216;SDS011;55037;52.354;4.992;2022-09-09T09:18:03;6.83;;;3.10;;
68216;SDS011;55037;52.354;4.992;2022-09-09T09:20:39;7.57;;;3.40;;
68216;SDS011;55037;52.354;4.992;2022-09-09T09:23:12;11.55;;;4.03;;
68216;SDS011;55037;52.354;4.992;2022-09-09T09:25:50;8.68;;;3.28;;
68216;SDS011;55037;52.354;4.992;2022-09-09T09:28:24;9.80;;;3.58;;
68216;SDS011;55037;52.354;4.992;2022-09-09T09:33:41;7.55;;;3.42;;
68216;SDS011;55037;52.354;4.992;2022-09-09T09:36:13;8.40;;;3.08;;
68216;SDS011;55037;52.354;4.992;2022-09-09T09:38:58;7.90;;;2.60;;
68216;SDS011;55037;52.354;4.992;2022-09-09T09:41:47;7.35;;;3.30;;
68216;SDS011;55037;52.354;4.992;2022-09-09T09:44:22;9.43;;;2.95;;
68216;SDS011;55037;52.354;4.992;2022-09-09T09:47:13;7.53;;;2.97;;
68216;SDS011;55037;52.354;4.992;2022-09-09T09:49:54;7.45;;;2.92;;
68216;SDS011;55037;52.354;4.992;2022-09-09T09:52:29;8.45;;;3.15;;
68216;SDS011;55037;52.354;4.992;2022-09-09T09:54:59;8.07;;;3.17;;
68216;SDS011;55037;52.354;4.992;2022-09-09T09:57:33;6.32;;;2.53;;
68216;SDS011;55037;52.354;4.992;2022-09-09T10:00:17;6.97;;;2.60;;
68216;SDS011;55037;52.354;4.992;2022-09-09T10:02:55;7.13;;;2.73;;
68216;SDS011;55037;52.354;4.992;2022-09-09T10:05:26;9.05;;;3.05;;
68216;SDS011;55037;52.354;4.992;2022-09-09T10:08:15;8.60;;;2.55;;
68216;SDS011;55037;52.354;4.992;2022-09-09T10:16:19;7.20;;;2.80;;
68216;SDS011;55037;52.354;4.992;2022-09-09T10:21:43;8.00;;;2.70;;
68216;SDS011;55037;52.354;4.992;2022-09-09T10:26:59;6.30;;;2.60;;
68216;SDS011;55037;52.354;4.992;2022-09-09T10:33:40;7.63;;;2.75;;
68216;SDS011;55037;52.354;4.992;2022-09-09T10:51:44;5.15;;;2.10;;
68216;SDS011;55037;52.354;4.992;2022-09-09T10:54:24;7.28;;;2.38;;
68216;SDS011;55037;52.354;4.992;2022-09-09T10:57:02;5.38;;;2.15;;
68216;SDS011;55037;52.354;4.992;2022-09-09T10:59:37;5.63;;;2.35;;
68216;SDS011;55037;52.354;4.992;2022-09-09T11:04:43;5.60;;;2.08;;
68216;SDS011;55037;52.354;4.992;2022-09-09T11:08:01;5.88;;;2.05;;
68216;SDS011;55037;52.354;4.992;2022-09-09T11:13:19;3.60;;;1.85;;
68216;SDS011;55037;52.354;4.992;2022-09-09T11:16:17;7.15;;;2.00;;
68216;SDS011;55037;52.354;4.992;2022-09-09T11:18:46;5.03;;;2.17;;
68216;SDS011;55037;52.354;4.992;2022-09-09T11:21:17;5.55;;;2.10;;
68216;SDS011;55037;52.354;4.992;2022-09-09T11:23:54;6.30;;;2.33;;
68216;SDS011;55037;52.354;4.992;2022-09-09T11:26:30;4.55;;;1.83;;
68216;SDS011;55037;52.354;4.992;2022-09-09T11:37:36;5.63;;;2.22;;
68216;SDS011;55037;52.354;4.992;2022-09-09T11:40:22;7.45;;;2.55;;
68216;SDS011;55037;52.354;4.992;2022-09-09T11:43:00;7.87;;;2.50;;
68216;SDS011;55037;52.354;4.992;2022-09-09T11:45:39;5.25;;;2.10;;
68216;SDS011;55037;52.354;4.992;2022-09-09T11:48:29;6.07;;;2.67;;
68216;SDS011;55037;52.354;4.992;2022-09-09T11:51:09;5.50;;;1.90;;
68216;SDS011;55037;52.354;4.992;2022-09-09T11:53:50;6.23;;;2.07;;
68216;SDS011;55037;52.354;4.992;2022-09-09T11:58:55;5.10;;;1.95;;
68216;SDS011;55037;52.354;4.992;2022-09-09T12:01:34;4.03;;;1.80;;
68216;SDS011;55037;52.354;4.992;2022-09-09T12:07:00;3.85;;;1.67;;
68216;SDS011;55037;52.354;4.992;2022-09-09T12:17:24;5.00;;;1.80;;
68216;SDS011;55037;52.354;4.992;2022-09-09T12:22:44;3.72;;;1.98;;
68216;SDS011;55037;52.354;4.992;2022-09-09T12:33:45;4.13;;;2.40;;
68216;SDS011;55037;52.354;4.992;2022-09-09T12:36:15;6.32;;;2.67;;
68216;SDS011;55037;52.354;4.992;2022-09-09T12:38:46;4.70;;;2.50;;
68216;SDS011;55037;52.354;4.992;2022-09-09T12:41:18;5.22;;;2.40;;
68216;SDS011;55037;52.354;4.992;2022-09-09T12:43:47;5.17;;;2.50;;
68216;SDS011;55037;52.354;4.992;2022-09-09T12:46:17;5.50;;;2.10;;
68216;SDS011;55037;52.354;4.992;2022-09-09T12:48:53;5.95;;;2.80;;
68216;SDS011;55037;52.354;4.992;2022-09-09T12:51:23;5.45;;;2.50;;
68216;SDS011;55037;52.354;4.992;2022-09-09T12:53:55;4.70;;;2.13;;
68216;SDS011;55037;52.354;4.992;2022-09-09T12:56:32;6.40;;;2.73;;
68216;SDS011;55037;52.354;4.992;2022-09-09T12:59:00;6.95;;;2.60;;
68216;SDS011;55037;52.354;4.992;2022-09-09T13:01:28;6.90;;;2.67;;
68216;SDS011;55037;52.354;4.992;2022-09-09T13:03:57;6.00;;;2.65;;
68216;SDS011;55037;52.354;4.992;2022-09-09T13:06:26;5.25;;;2.67;;
68216;SDS011;55037;52.354;4.992;2022-09-09T13:08:58;6.47;;;3.05;;
68216;SDS011;55037;52.354;4.992;2022-09-09T13:11:37;7.78;;;3.40;;
68216;SDS011;55037;52.354;4.992;2022-09-09T13:14:18;7.32;;;4.00;;
68216;SDS011;55037;52.354;4.992;2022-09-09T13:16:56;5.07;;;3.75;;
68216;SDS011;55037;52.354;4.992;2022-09-09T13:19:25;8.77;;;4.57;;
68216;SDS011;55037;52.354;4.992;2022-09-09T13:21:55;9.57;;;4.70;;
68216;SDS011;55037;52.354;4.992;2022-09-09T13:24:29;10.07;;;5.20;;
68216;SDS011;55037;52.354;4.992;2022-09-09T13:27:00;9.23;;;4.53;;
68216;SDS011;55037;52.354;4.992;2022-09-09T13:29:29;4.90;;;2.20;;
68216;SDS011;55037;52.354;4.992;2022-09-09T13:32:05;6.07;;;2.65;;
68216;SDS011;55037;52.354;4.992;2022-09-09T13:34:34;6.90;;;3.10;;
68216;SDS011;55037;52.354;4.992;2022-09-09T13:37:03;11.05;;;4.25;;
68216;SDS011;55037;52.354;4.992;2022-09-09T13:39:38;7.03;;;3.72;;
68216;SDS011;55037;52.354;4.992;2022-09-09T13:42:05;9.82;;;4.78;;
68216;SDS011;55037;52.354;4.992;2022-09-09T13:44:49;6.28;;;4.10;;
68216;SDS011;55037;52.354;4.992;2022-09-09T13:47:19;7.27;;;4.10;;
68216;SDS011;55037;52.354;4.992;2022-09-09T13:49:49;8.40;;;4.57;;
68216;SDS011;55037;52.354;4.992;2022-09-09T13:52:17;8.65;;;5.00;;
68216;SDS011;55037;52.354;4.992;2022-09-09T13:54:49;8.85;;;4.45;;
68216;SDS011;55037;52.354;4.992;2022-09-09T13:57:18;9.88;;;4.38;;
68216;SDS011;55037;52.354;4.992;2022-09-09T13:59:51;7.43;;;4.68;;
68216;SDS011;55037;52.354;4.992;2022-09-09T14:02:36;9.25;;;4.63;;
68216;SDS011;55037;52.354;4.992;2022-09-09T14:05:05;7.72;;;3.95;;
68216;SDS011;55037;52.354;4.992;2022-09-09T14:07:32;7.93;;;4.25;;
68216;SDS011;55037;52.354;4.992;2022-09-09T14:10:00;6.97;;;4.53;;
68216;SDS011;55037;52.354;4.992;2022-09-09T14:12:27;8.80;;;4.63;;
68216;SDS011;55037;52.354;4.992;2022-09-09T14:14:54;8.60;;;4.22;;
68216;SDS011;55037;52.354;4.992;2022-09-09T14:17:21;7.72;;;4.07;;
68216;SDS011;55037;52.354;4.992;2022-09-09T14:19:49;5.40;;;3.30;;
68216;SDS011;55037;52.354;4.992;2022-09-09T14:22:16;4.82;;;2.95;;
68216;SDS011;55037;52.354;4.992;2022-09-09T14:24:44;6.95;;;3.53;;
68216;SDS011;55037;52.354;4.992;2022-09-09T14:27:11;6.45;;;3.47;;
68216;SDS011;55037;52.354;4.992;2022-09-09T14:29:38;8.07;;;3.40;;
68216;SDS011;55037;52.354;4.992;2022-09-09T14:32:05;7.22;;;3.10;;
68216;SDS011;55037;52.354;4.992;2022-09-09T14:34:38;5.87;;;3.23;;
68216;SDS011;55037;52.354;4.992;2022-09-09T14:37:05;6.15;;;2.80;;
68216;SDS011;55037;52.354;4.992;2022-09-09T14:39:32;4.97;;;2.77;;
68216;SDS011;55037;52.354;4.992;2022-09-09T14:42:00;5.43;;;2.80;;
68216;SDS011;55037;52.354;4.992;2022-09-09T14:44:27;6.85;;;2.97;;
68216;SDS011;55037;52.354;4.992;2022-09-09T14:46:55;5.80;;;2.78;;
68216;SDS011;55037;52.354;4.992;2022-09-09T14:49:22;7.75;;;2.92;;
68216;SDS011;55037;52.354;4.992;2022-09-09T14:51:49;5.00;;;2.95;;
68216;SDS011;55037;52.354;4.992;2022-09-09T14:54:16;6.33;;;3.00;;
68216;SDS011;55037;52.354;4.992;2022-09-09T14:56:43;6.07;;;3.00;;
68216;SDS011;55037;52.354;4.992;2022-09-09T14:59:10;6.82;;;2.72;;
68216;SDS011;55037;52.354;4.992;2022-09-09T15:01:37;5.57;;;2.50;;
68216;SDS011;55037;52.354;4.992;2022-09-09T15:04:05;5.10;;;2.38;;
68216;SDS011;55037;52.354;4.992;2022-09-09T15:06:33;7.00;;;2.50;;
68216;SDS011;55037;52.354;4.992;2022-09-09T15:09:03;6.28;;;2.20;;
68216;SDS011;55037;52.354;4.992;2022-09-09T15:11:32;5.00;;;2.20;;
68216;SDS011;55037;52.354;4.992;2022-09-09T15:14:07;4.63;;;1.90;;
68216;SDS011;55037;52.354;4.992;2022-09-09T15:16:35;4.70;;;2.00;;
68216;SDS011;55037;52.354;4.992;2022-09-09T15:19:03;5.13;;;1.75;;
68216;SDS011;55037;52.354;4.992;2022-09-09T15:21:31;4.05;;;1.92;;
68216;SDS011;55037;52.354;4.992;2022-09-09T15:24:00;5.45;;;2.40;;
68216;SDS011;55037;52.354;4.992;2022-09-09T15:26:27;4.63;;;1.80;;
68216;SDS011;55037;52.354;4.992;2022-09-09T15:28:56;5.13;;;2.10;;
68216;SDS011;55037;52.354;4.992;2022-09-09T15:31:27;4.47;;;1.95;;
68216;SDS011;55037;52.354;4.992;2022-09-09T15:34:01;4.10;;;2.00;;
68216;SDS011;55037;52.354;4.992;2022-09-09T15:39:00;4.80;;;2.00;;
68216;SDS011;55037;52.354;4.992;2022-09-09T15:41:28;5.60;;;2.30;;
68216;SDS011;55037;52.354;4.992;2022-09-09T15:43:58;5.40;;;2.20;;
68216;SDS011;55037;52.354;4.992;2022-09-09T15:46:34;5.50;;;2.20;;
68216;SDS011;55037;52.354;4.992;2022-09-09T15:51:42;5.90;;;2.50;;
68216;SDS011;55037;52.354;4.992;2022-09-09T15:54:12;5.93;;;2.40;;
68216;SDS011;55037;52.354;4.992;2022-09-09T15:56:41;5.05;;;2.13;;
68216;SDS011;55037;52.354;4.992;2022-09-09T15:59:08;5.57;;;2.20;;
68216;SDS011;55037;52.354;4.992;2022-09-09T16:01:35;6.90;;;2.40;;
68216;SDS011;55037;52.354;4.992;2022-09-09T16:04:03;6.70;;;2.30;;
68216;SDS011;55037;52.354;4.992;2022-09-09T16:06:30;5.50;;;2.13;;
68216;SDS011;55037;52.354;4.992;2022-09-09T16:08:58;6.15;;;2.65;;
68216;SDS011;55037;52.354;4.992;2022-09-09T16:11:28;7.43;;;2.72;;
68216;SDS011;55037;52.354;4.992;2022-09-09T16:13:57;7.00;;;2.78;;
68216;SDS011;55037;52.354;4.992;2022-09-09T16:16:27;6.28;;;2.65;;
68216;SDS011;55037;52.354;4.992;2022-09-09T16:18:57;6.35;;;2.70;;
68216;SDS011;55037;52.354;4.992;2022-09-09T16:21:26;6.05;;;2.78;;
68216;SDS011;55037;52.354;4.992;2022-09-09T16:23:59;6.67;;;3.10;;
68216;SDS011;55037;52.354;4.992;2022-09-09T16:26:28;7.95;;;2.97;;
68216;SDS011;55037;52.354;4.992;2022-09-09T16:28:57;6.32;;;2.97;;
68216;SDS011;55037;52.354;4.992;2022-09-09T16:31:26;6.53;;;3.30;;
68216;SDS011;55037;52.354;4.992;2022-09-09T16:33:54;7.80;;;3.17;;
68216;SDS011;55037;52.354;4.992;2022-09-09T16:36:28;8.38;;;3.50;;
68216;SDS011;55037;52.354;4.992;2022-09-09T16:39:00;6.73;;;2.70;;
68216;SDS011;55037;52.354;4.992;2022-09-09T16:41:32;6.43;;;2.47;;
68216;SDS011;55037;52.354;4.992;2022-09-09T16:44:01;5.35;;;2.40;;
68216;SDS011;55037;52.354;4.992;2022-09-09T16:46:31;7.80;;;2.50;;
68216;SDS011;55037;52.354;4.992;2022-09-09T16:49:01;8.68;;;2.60;;
68216;SDS011;55037;52.354;4.992;2022-09-09T16:51:35;5.43;;;2.10;;
68216;SDS011;55037;52.354;4.992;2022-09-09T16:54:07;7.32;;;2.50;;
68216;SDS011;55037;52.354;4.992;2022-09-09T16:56:36;7.30;;;2.42;;
68216;SDS011;55037;52.354;4.992;2022-09-09T16:59:06;6.65;;;2.35;;
68216;SDS011;55037;52.354;4.992;2022-09-09T17:01:37;7.93;;;2.40;;
68216;SDS011;55037;52.354;4.992;2022-09-09T17:04:08;6.93;;;2.40;;
68216;SDS011;55037;52.354;4.992;2022-09-09T17:06:51;5.93;;;2.50;;
68216;SDS011;55037;52.354;4.992;2022-09-09T17:09:20;7.43;;;2.30;;
68216;SDS011;55037;52.354;4.992;2022-09-09T17:11:49;6.95;;;2.20;;
68216;SDS011;55037;52.354;4.992;2022-09-09T17:14:19;6.05;;;2.30;;
68216;SDS011;55037;52.354;4.992;2022-09-09T17:16:47;7.72;;;2.30;;
68216;SDS011;55037;52.354;4.992;2022-09-09T17:19:14;8.30;;;2.40;;
68216;SDS011;55037;52.354;4.992;2022-09-09T17:21:42;7.95;;;2.47;;